EGDX

MOD St. Athan Airport

St. Athan, United Kingdom
METAR EGDX 181250Z 15014KT 9999 FEW018 BKN028 07/03 Q1010 BLU
Observed Flight Rules
Jan-18 @ 12:50 UTC (60 minutes ago) Marginal Visual Flight Rules
Wind Visibility Clouds
150° at 14 knots 10,000+ meters
  • Few at 1,800' AGL
  • Broken at 2,800' AGL
Temperatures Readings
Current 7°C / 45°F
Dewpoint 3°C / 37°F
Humidity 76%
Altimeter 29.82" Hg
Pressure 1009.92 hPa
Elevation 50
METAR EGDX 181250Z 15014KT 9999 FEW018 BKN028 07/03 Q1010 BLU
Observed Flight Rules
Jan-18 @ 12:50 UTC
(60 minutes ago)
MVFR
Wind Visibility
150° at 14 knots 10,000+ meters
Clouds
  • Few at 1,800' AGL
  • Broken at 2,800' AGL
Temperature Dewpoint
7°C / 45°F 3°C / 37°F
Humidity Altimeter Pressure
76% 29.82" Hg 1009.92 hPa